createdAt,value
2023-03-06T00:01:18.719Z,12.50
2023-03-06T00:03:48.687Z,13.97
2023-03-06T00:06:17.191Z,15.50
2023-03-06T00:08:45.721Z,15.10
2023-03-06T00:11:15.579Z,13.63
2023-03-06T00:13:43.986Z,14.60
2023-03-06T00:16:12.710Z,15.97
2023-03-06T00:18:41.799Z,16.07
2023-03-06T00:21:11.589Z,19.10
2023-03-06T00:23:41.417Z,20.87
2023-03-06T00:26:10.672Z,19.47
2023-03-06T00:28:41.068Z,21.43
2023-03-06T00:31:10.925Z,22.17
2023-03-06T00:33:39.382Z,21.60
2023-03-06T00:36:08.355Z,24.03
2023-03-06T00:38:38.102Z,25.93
2023-03-06T00:41:10.657Z,24.67
2023-03-06T00:43:39.111Z,24.83
2023-03-06T00:46:09.504Z,24.47
2023-03-06T00:48:38.004Z,29.63
2023-03-06T00:51:07.218Z,29.57
2023-03-06T00:53:37.108Z,35.73
2023-03-06T00:56:05.876Z,30.77
2023-03-06T00:58:34.177Z,34.53
2023-03-06T01:01:02.620Z,41.60
2023-03-06T01:03:31.319Z,35.00
2023-03-06T01:05:59.814Z,33.07
2023-03-06T01:08:28.283Z,34.67
2023-03-06T01:10:59.422Z,37.57
2023-03-06T01:13:28.258Z,39.73
2023-03-06T01:15:56.736Z,37.90
2023-03-06T01:18:25.163Z,42.73
2023-03-06T01:20:53.774Z,33.73
2023-03-06T01:23:22.048Z,36.63
2023-03-06T01:25:50.839Z,32.70
2023-03-06T01:28:23.031Z,39.37
2023-03-06T01:30:51.562Z,38.63
2023-03-06T01:33:20.034Z,38.73
2023-03-06T01:35:48.513Z,36.97
2023-03-06T01:38:17.241Z,36.53
2023-03-06T01:40:46.058Z,34.63
2023-03-06T01:43:28.531Z,36.67
2023-03-06T01:46:23.856Z,38.20
2023-03-06T01:48:57.742Z,39.57
2023-03-06T01:51:29.669Z,35.53
2023-03-06T01:54:01.315Z,35.30
2023-03-06T01:56:30.639Z,39.83
2023-03-06T01:59:01.675Z,40.57
2023-03-06T02:01:31.277Z,34.33
2023-03-06T02:04:01.848Z,37.73
2023-03-06T02:06:31.112Z,37.83
2023-03-06T02:09:06.791Z,37.57
2023-03-06T02:11:35.244Z,37.87
2023-03-06T02:14:05.132Z,38.73
2023-03-06T02:16:34.468Z,39.70
2023-03-06T02:19:05.933Z,37.60
2023-03-06T02:21:36.968Z,36.13
2023-03-06T02:24:17.656Z,35.07
2023-03-06T02:26:48.991Z,37.70
2023-03-06T02:29:23.066Z,39.03
2023-03-06T02:31:51.808Z,34.70
2023-03-06T02:34:53.891Z,37.30
2023-03-06T02:37:23.850Z,32.80
2023-03-06T02:39:59.082Z,32.00
2023-03-06T02:42:30.011Z,34.67
2023-03-06T02:45:01.901Z,31.40
2023-03-06T02:47:30.355Z,29.50
2023-03-06T02:49:58.655Z,34.73
2023-03-06T02:52:27.015Z,36.23
2023-03-06T02:54:55.498Z,35.13
2023-03-06T02:57:24.230Z,31.37
2023-03-06T02:59:54.291Z,31.97
2023-03-06T03:02:22.823Z,36.97
2023-03-06T03:04:51.217Z,30.17
2023-03-06T03:07:20.146Z,29.63
2023-03-06T03:09:48.914Z,29.97
2023-03-06T03:12:17.719Z,34.53
2023-03-06T03:14:46.641Z,32.17
2023-03-06T03:17:16.815Z,33.70
2023-03-06T03:19:47.890Z,32.27
2023-03-06T03:22:16.737Z,32.90
2023-03-06T03:24:45.603Z,32.80
2023-03-06T03:27:14.443Z,33.47
2023-03-06T03:29:43.012Z,34.07
2023-03-06T03:32:11.779Z,34.63
2023-03-06T03:34:44.094Z,39.73
2023-03-06T03:37:12.478Z,37.67
2023-03-06T03:39:43.832Z,35.70
2023-03-06T03:42:12.728Z,39.10
2023-03-06T03:44:41.117Z,36.47
2023-03-06T03:47:09.889Z,37.47
2023-03-06T03:49:38.276Z,35.03
2023-03-06T03:52:08.448Z,35.77
2023-03-06T03:54:38.559Z,39.10
2023-03-06T03:57:06.974Z,35.10
2023-03-06T03:59:39.540Z,40.47
2023-03-06T04:02:25.511Z,39.77
2023-03-06T04:05:09.687Z,38.60
2023-03-06T04:07:39.542Z,29.57
2023-03-06T04:10:10.150Z,34.30
2023-03-06T04:12:39.411Z,36.90
2023-03-06T04:15:09.548Z,32.53
2023-03-06T04:17:38.248Z,30.60
2023-03-06T04:20:11.109Z,34.13
2023-03-06T04:22:41.192Z,32.90
2023-03-06T04:25:10.558Z,37.73
2023-03-06T04:27:38.898Z,39.83
2023-03-06T04:30:09.205Z,37.40
2023-03-06T04:32:37.881Z,40.97
2023-03-06T04:35:07.237Z,35.37
2023-03-06T04:37:43.252Z,31.43
2023-03-06T04:40:18.599Z,34.10
2023-03-06T04:42:47.348Z,36.50
2023-03-06T04:45:16.719Z,35.73
2023-03-06T04:47:45.159Z,34.33
2023-03-06T04:50:13.884Z,36.30
2023-03-06T04:52:43.765Z,36.77
2023-03-06T04:55:15.189Z,40.60
2023-03-06T04:57:45.607Z,37.30
2023-03-06T05:00:16.554Z,39.40
2023-03-06T05:02:46.019Z,44.27
2023-03-06T05:05:15.288Z,40.73
2023-03-06T05:07:45.698Z,47.77
2023-03-06T05:10:16.397Z,43.63
2023-03-06T05:12:45.235Z,43.20
2023-03-06T05:15:14.390Z,46.73
2023-03-06T05:17:42.827Z,46.10
2023-03-06T05:20:13.667Z,60.07
2023-03-06T05:22:42.461Z,42.70
2023-03-06T05:25:12.366Z,41.07
2023-03-06T05:27:41.236Z,35.53
2023-03-06T05:30:13.952Z,41.70
2023-03-06T05:32:42.916Z,41.33
2023-03-06T05:35:18.579Z,44.17
2023-03-06T05:37:47.382Z,44.33
2023-03-06T05:40:18.302Z,43.73
2023-03-06T05:42:47.011Z,43.17
2023-03-06T05:45:15.474Z,43.70
2023-03-06T05:47:43.801Z,41.53
2023-03-06T05:50:14.101Z,41.80
2023-03-06T05:52:42.522Z,44.53
2023-03-06T05:55:13.173Z,43.20
2023-03-06T05:57:42.982Z,49.20
2023-03-06T06:00:12.967Z,49.80
2023-03-06T06:02:41.856Z,47.00
2023-03-06T06:05:12.950Z,48.73
2023-03-06T06:07:41.980Z,50.20
2023-03-06T06:10:12.944Z,53.60
2023-03-06T06:12:42.751Z,50.73
2023-03-06T06:15:11.836Z,50.40
2023-03-06T06:17:40.614Z,51.47
2023-03-06T06:20:11.800Z,47.80
2023-03-06T06:22:40.106Z,56.40
2023-03-06T06:25:09.329Z,49.70
2023-03-06T06:27:37.793Z,48.13
2023-03-06T06:30:12.068Z,55.73
2023-03-06T06:34:19.402Z,55.00
2023-03-06T06:36:48.117Z,52.53
2023-03-06T06:39:18.311Z,48.27
2023-03-06T06:42:02.398Z,53.67
2023-03-06T06:44:36.634Z,49.00
2023-03-06T06:47:23.466Z,49.60
2023-03-06T06:49:57.337Z,49.07
2023-03-06T06:52:26.325Z,54.10
2023-03-06T06:54:54.968Z,54.90
2023-03-06T06:57:23.521Z,59.23
2023-03-06T06:59:53.959Z,58.10
2023-03-06T07:02:22.955Z,56.07
2023-03-06T07:05:06.928Z,60.80
2023-03-06T07:07:38.630Z,60.73
2023-03-06T07:10:08.930Z,60.70
2023-03-06T07:12:38.656Z,66.57
2023-03-06T07:15:08.307Z,59.57
2023-03-06T07:17:36.710Z,61.80
2023-03-06T07:20:07.019Z,65.10
2023-03-06T07:22:49.897Z,62.73
2023-03-06T07:25:19.996Z,61.23
2023-03-06T07:27:53.297Z,58.33
2023-03-06T07:30:25.611Z,62.83
2023-03-06T07:32:55.885Z,57.13
2023-03-06T07:35:26.188Z,61.07
2023-03-06T07:37:56.314Z,54.17
2023-03-06T07:40:25.794Z,53.63
2023-03-06T07:42:56.493Z,58.40
2023-03-06T07:45:36.306Z,55.70
2023-03-06T07:48:06.233Z,57.67
2023-03-06T07:50:35.201Z,58.93
2023-03-06T07:53:05.013Z,59.77
2023-03-06T07:55:33.390Z,56.30
2023-03-06T07:58:01.765Z,59.77
2023-03-06T08:00:30.279Z,59.57
2023-03-06T08:02:58.911Z,54.83
2023-03-06T08:05:27.315Z,59.40
2023-03-06T08:07:55.762Z,59.80
2023-03-06T08:10:25.839Z,60.30
2023-03-06T08:12:54.492Z,54.63
2023-03-06T08:15:23.097Z,54.07
2023-03-06T08:17:52.331Z,60.40
2023-03-06T08:20:20.946Z,62.00
2023-03-06T08:22:50.001Z,57.53
2023-03-06T08:25:18.699Z,55.43
2023-03-06T08:27:48.674Z,62.57
2023-03-06T08:30:17.781Z,58.27
2023-03-06T08:32:46.519Z,53.63
2023-03-06T08:35:15.257Z,57.63
2023-03-06T08:37:43.879Z,60.33
2023-03-06T08:40:14.156Z,53.67
2023-03-06T08:42:42.678Z,52.27
2023-03-06T08:45:13.164Z,59.17
2023-03-06T08:47:41.477Z,57.13
2023-03-06T08:50:11.415Z,60.37
2023-03-06T08:52:39.910Z,63.50
2023-03-06T08:55:09.275Z,59.13
2023-03-06T08:57:37.580Z,60.80
2023-03-06T09:00:08.985Z,50.33
2023-03-06T09:02:38.827Z,59.97
2023-03-06T09:05:08.245Z,62.33
2023-03-06T09:07:36.814Z,60.80
2023-03-06T09:10:05.856Z,61.63
2023-03-06T09:12:47.393Z,53.67
2023-03-06T09:15:18.318Z,56.33
2023-03-06T09:17:48.484Z,50.43
2023-03-06T09:20:17.052Z,51.13
2023-03-06T09:22:46.711Z,51.17
2023-03-06T09:25:20.261Z,55.77
2023-03-06T09:28:01.833Z,58.00
2023-03-06T09:30:33.798Z,52.67
2023-03-06T09:33:03.628Z,54.80
2023-03-06T09:35:32.037Z,59.10
2023-03-06T09:38:00.527Z,54.70
2023-03-06T09:40:40.726Z,55.50
2023-03-06T09:43:18.864Z,53.83
2023-03-06T09:45:47.455Z,59.33
2023-03-06T09:48:23.110Z,59.80
2023-03-06T09:50:58.243Z,62.43
2023-03-06T09:53:41.452Z,53.70
2023-03-06T09:56:16.313Z,49.30
2023-03-06T09:58:50.288Z,46.93
2023-03-06T10:01:22.584Z,43.47
2023-03-06T10:03:56.711Z,46.37
2023-03-06T10:06:29.959Z,41.47
2023-03-06T10:09:03.659Z,37.63
2023-03-06T10:11:37.044Z,40.33
2023-03-06T10:14:22.828Z,37.80
2023-03-06T10:16:51.310Z,35.87
2023-03-06T10:19:22.490Z,35.43
2023-03-06T10:21:59.570Z,35.03
2023-03-06T10:24:45.276Z,34.63
2023-03-06T10:27:23.676Z,35.77
2023-03-06T10:30:03.282Z,32.73
2023-03-06T10:32:48.863Z,33.00
2023-03-06T10:35:23.484Z,30.23
2023-03-06T10:37:52.052Z,31.10
2023-03-06T10:40:36.746Z,30.53
2023-03-06T10:43:12.386Z,29.43
2023-03-06T10:45:50.298Z,25.97
2023-03-06T10:48:24.318Z,25.07
2023-03-06T10:50:55.027Z,26.30
2023-03-06T10:53:26.988Z,24.33
2023-03-06T10:55:57.417Z,25.30
2023-03-06T10:58:28.194Z,21.83
2023-03-06T11:01:06.908Z,24.53
2023-03-06T11:03:36.542Z,24.87
2023-03-06T11:06:13.143Z,24.00
2023-03-06T11:08:44.226Z,26.60
2023-03-06T11:11:22.434Z,22.03
2023-03-06T11:13:59.766Z,22.17
2023-03-06T11:16:30.555Z,20.27
2023-03-06T11:19:01.482Z,19.10
2023-03-06T11:21:33.649Z,16.10
2023-03-06T11:24:08.704Z,16.33
2023-03-06T11:26:46.982Z,18.70
2023-03-06T11:29:29.600Z,19.90
2023-03-06T11:32:05.554Z,21.23
2023-03-06T11:34:43.151Z,22.80
2023-03-06T11:37:21.894Z,17.73
2023-03-06T11:39:58.139Z,17.07
2023-03-06T11:42:31.402Z,18.47
2023-03-06T11:45:13.628Z,15.47
2023-03-06T11:47:45.390Z,14.97
2023-03-06T11:50:22.958Z,18.03
2023-03-06T11:52:56.704Z,18.97
2023-03-06T11:55:38.537Z,18.33
2023-03-06T11:58:33.512Z,21.87
2023-03-06T12:01:07.500Z,19.50
2023-03-06T12:04:06.409Z,22.90
2023-03-06T12:06:48.631Z,19.97
2023-03-06T12:09:27.850Z,19.90
2023-03-06T12:12:10.038Z,20.47
2023-03-06T12:14:55.046Z,18.60
2023-03-06T12:17:33.185Z,21.53
2023-03-06T12:20:21.378Z,15.97
2023-03-06T12:22:57.689Z,20.93
2023-03-06T12:25:37.856Z,21.97
2023-03-06T12:28:27.512Z,21.53
2023-03-06T12:31:18.520Z,18.77
2023-03-06T12:34:01.027Z,21.13
2023-03-06T12:36:42.750Z,24.23
2023-03-06T12:39:19.228Z,21.90
2023-03-06T12:42:23.513Z,24.43
2023-03-06T12:45:05.330Z,25.53
2023-03-06T12:47:42.503Z,26.93
2023-03-06T12:50:20.164Z,29.17
2023-03-06T12:52:49.713Z,28.23
2023-03-06T12:55:23.677Z,24.83
2023-03-06T12:57:55.140Z,28.07
2023-03-06T13:01:03.627Z,23.70
2023-03-06T13:03:45.209Z,21.37
2023-03-06T13:06:32.418Z,28.30
2023-03-06T13:09:13.443Z,22.13
2023-03-06T13:12:09.137Z,21.97
2023-03-06T13:15:26.176Z,24.67
2023-03-06T13:17:56.565Z,24.07
2023-03-06T13:20:36.484Z,20.20
2023-03-06T13:23:53.332Z,20.37
2023-03-06T13:26:54.776Z,19.57
2023-03-06T13:30:02.589Z,20.60
2023-03-06T13:32:34.623Z,17.70
2023-03-06T13:35:48.679Z,19.30
2023-03-06T13:38:56.241Z,21.53
2023-03-06T13:41:37.769Z,18.07
2023-03-06T13:44:48.870Z,17.77
2023-03-06T13:48:05.719Z,18.90
2023-03-06T13:50:35.985Z,18.87
2023-03-06T13:53:37.853Z,21.07
2023-03-06T13:56:34.103Z,15.63
2023-03-06T13:59:20.905Z,17.07
2023-03-06T14:02:00.962Z,16.77
2023-03-06T14:04:39.883Z,18.23
2023-03-06T14:07:28.864Z,17.13
2023-03-06T14:10:03.244Z,19.70
2023-03-06T14:12:35.510Z,21.73
2023-03-06T14:15:13.458Z,20.43
2023-03-06T14:17:53.937Z,25.63
2023-03-06T14:20:24.848Z,22.00
2023-03-06T14:22:54.653Z,22.17
2023-03-06T14:25:29.741Z,24.93
2023-03-06T14:28:09.155Z,25.20
2023-03-06T14:30:50.978Z,26.07
2023-03-06T14:33:30.672Z,29.30
2023-03-06T14:36:02.936Z,30.43
2023-03-06T14:38:36.673Z,30.87
2023-03-06T14:41:07.590Z,34.50
2023-03-06T14:43:36.240Z,36.37
2023-03-06T14:46:07.331Z,33.00
2023-03-06T14:48:42.062Z,31.80
2023-03-06T14:51:18.242Z,36.80
2023-03-06T14:53:50.287Z,33.43
2023-03-06T14:56:20.691Z,27.37
2023-03-06T14:58:58.796Z,22.50
2023-03-06T15:01:33.284Z,25.33
2023-03-06T15:04:02.676Z,32.67
2023-03-06T15:06:35.591Z,28.93
2023-03-06T15:09:15.056Z,33.00
2023-03-06T15:11:53.495Z,30.73
2023-03-06T15:14:23.745Z,29.67
2023-03-06T15:16:52.265Z,23.27
2023-03-06T15:19:21.917Z,22.10
2023-03-06T15:21:52.000Z,17.83
2023-03-06T15:24:36.812Z,22.97
2023-03-06T15:27:06.899Z,21.90
2023-03-06T15:29:39.061Z,21.67
2023-03-06T15:32:16.197Z,22.67
2023-03-06T15:34:44.668Z,23.67
2023-03-06T15:37:29.553Z,26.57
2023-03-06T15:40:09.542Z,27.87
2023-03-06T15:42:38.057Z,24.90
2023-03-06T15:45:16.364Z,24.37
2023-03-06T15:47:45.205Z,26.97
2023-03-06T15:50:17.954Z,24.40
2023-03-06T15:52:47.078Z,24.27
2023-03-06T15:55:18.862Z,25.60
2023-03-06T15:57:53.022Z,27.70
2023-03-06T16:00:28.267Z,28.63
2023-03-06T16:02:57.511Z,27.20
2023-03-06T16:05:26.671Z,27.57
2023-03-06T16:07:55.824Z,27.93
2023-03-06T16:10:28.613Z,25.30
2023-03-06T16:12:58.995Z,27.80
2023-03-06T16:15:29.246Z,28.67
2023-03-06T16:17:58.758Z,29.20
2023-03-06T16:20:29.231Z,27.83
2023-03-06T16:22:57.673Z,29.90
2023-03-06T16:25:29.030Z,27.23
2023-03-06T16:27:59.134Z,26.23
2023-03-06T16:30:29.452Z,32.40
2023-03-06T16:32:58.375Z,30.33
2023-03-06T16:35:27.292Z,32.77
2023-03-06T16:37:55.855Z,30.27
2023-03-06T16:40:26.604Z,29.33
2023-03-06T16:42:56.728Z,33.77
2023-03-06T16:45:25.825Z,40.60
2023-03-06T16:47:54.577Z,34.87
2023-03-06T16:50:26.603Z,39.60
2023-03-06T16:52:56.517Z,41.07
2023-03-06T16:55:25.609Z,47.50
2023-03-06T16:57:54.487Z,44.13
2023-03-06T17:00:28.585Z,44.90
2023-03-06T17:02:58.994Z,45.80
2023-03-06T17:05:27.656Z,46.87
2023-03-06T17:07:56.492Z,49.97
2023-03-06T17:10:26.495Z,53.23
2023-03-06T17:12:56.560Z,48.83
2023-03-06T17:15:26.353Z,45.30
2023-03-06T17:17:54.694Z,48.13
2023-03-06T17:20:23.985Z,46.27
2023-03-06T17:22:52.528Z,47.57
2023-03-06T17:25:21.367Z,44.80
2023-03-06T17:27:51.906Z,49.60
2023-03-06T17:30:20.489Z,45.60
2023-03-06T17:32:50.437Z,43.37
2023-03-06T17:35:18.932Z,48.47
2023-03-06T17:37:47.338Z,44.50
2023-03-06T17:40:16.660Z,44.30
2023-03-06T17:42:45.038Z,44.90
2023-03-06T17:45:13.953Z,45.87
2023-03-06T17:47:42.436Z,43.00
2023-03-06T17:50:13.353Z,42.43
2023-03-06T17:52:42.285Z,39.60
2023-03-06T17:55:11.556Z,52.77
2023-03-06T17:57:40.336Z,39.77
2023-03-06T18:00:11.002Z,43.23
2023-03-06T18:02:45.493Z,42.70
2023-03-06T18:05:15.854Z,44.13
2023-03-06T18:07:44.409Z,43.40
2023-03-06T18:10:12.995Z,46.40
2023-03-06T18:12:41.582Z,43.27
2023-03-06T18:15:10.948Z,46.63
2023-03-06T18:17:39.773Z,46.10
2023-03-06T18:20:09.149Z,45.80
2023-03-06T18:22:39.148Z,41.03
2023-03-06T18:25:08.859Z,43.73
2023-03-06T18:27:37.516Z,43.43
2023-03-06T18:30:07.250Z,42.17
2023-03-06T18:32:36.693Z,38.30
2023-03-06T18:35:06.047Z,46.20
2023-03-06T18:37:35.053Z,43.50
2023-03-06T18:40:05.378Z,40.30
2023-03-06T18:42:34.171Z,41.67
2023-03-06T18:45:03.207Z,44.30
2023-03-06T18:47:31.874Z,38.03
2023-03-06T18:50:00.340Z,39.30
2023-03-06T18:52:28.698Z,38.13
2023-03-06T18:54:57.121Z,38.87
2023-03-06T18:57:28.724Z,35.00
2023-03-06T18:59:58.885Z,33.77
2023-03-06T19:02:27.513Z,36.60
2023-03-06T19:04:56.288Z,35.40
2023-03-06T19:07:25.157Z,34.67
2023-03-06T19:09:53.729Z,33.27
2023-03-06T19:12:22.382Z,36.63
2023-03-06T19:14:52.195Z,37.73
2023-03-06T19:17:20.678Z,33.27
2023-03-06T19:19:51.527Z,32.27
2023-03-06T19:22:20.089Z,35.77
2023-03-06T19:24:50.200Z,30.27
2023-03-06T19:27:18.768Z,33.80
2023-03-06T19:29:47.158Z,38.00
2023-03-06T19:32:17.096Z,31.03
2023-03-06T19:34:45.654Z,33.20
2023-03-06T19:37:14.145Z,36.97
2023-03-06T19:39:44.846Z,34.27
2023-03-06T19:42:13.973Z,34.23
2023-03-06T19:44:42.452Z,32.37
2023-03-06T19:47:11.261Z,30.10
2023-03-06T19:49:43.305Z,32.17
2023-03-06T19:52:11.783Z,34.17
2023-03-06T19:54:40.537Z,35.93
2023-03-06T19:57:09.286Z,36.30
2023-03-06T19:59:38.019Z,36.00
2023-03-06T20:02:07.119Z,31.37
2023-03-06T20:04:36.087Z,30.57
2023-03-06T20:07:08.645Z,33.23
2023-03-06T20:09:39.915Z,29.47
2023-03-06T20:12:08.592Z,35.73
2023-03-06T20:14:37.108Z,31.50
2023-03-06T20:17:05.600Z,32.03
2023-03-06T20:19:36.846Z,34.13
2023-03-06T20:22:07.063Z,32.60
2023-03-06T20:24:35.494Z,30.73
2023-03-06T20:27:03.856Z,35.23
2023-03-06T20:29:32.409Z,34.60
2023-03-06T20:32:01.062Z,33.60
2023-03-06T20:34:29.612Z,34.80
2023-03-06T20:36:58.215Z,34.13
2023-03-06T20:39:28.181Z,33.13
2023-03-06T20:41:56.579Z,31.37
2023-03-06T20:44:25.129Z,34.20
2023-03-06T20:46:55.266Z,31.47
2023-03-06T20:49:26.129Z,32.87
2023-03-06T20:51:56.793Z,36.10
2023-03-06T20:54:27.152Z,31.47
2023-03-06T20:56:55.614Z,36.23
2023-03-06T20:59:24.057Z,40.03
2023-03-06T21:01:52.636Z,37.23
2023-03-06T21:04:21.115Z,41.63
2023-03-06T21:06:49.546Z,41.90
2023-03-06T21:09:19.281Z,39.67
2023-03-06T21:11:49.521Z,36.77
2023-03-06T21:14:17.961Z,45.63
2023-03-06T21:16:46.524Z,39.73
2023-03-06T21:19:15.232Z,44.00
2023-03-06T21:21:43.695Z,40.40
2023-03-06T21:24:12.220Z,43.13
2023-03-06T21:26:40.736Z,40.10
2023-03-06T21:29:10.679Z,45.93
2023-03-06T21:31:40.477Z,38.73
2023-03-06T21:34:10.639Z,45.97
2023-03-06T21:36:39.167Z,42.50
2023-03-06T21:39:07.986Z,41.27
2023-03-06T21:41:38.132Z,47.17
2023-03-06T21:44:08.144Z,40.20
2023-03-06T21:46:38.261Z,47.57
2023-03-06T21:49:06.802Z,42.87
2023-03-06T21:51:35.716Z,41.83
2023-03-06T21:54:04.697Z,48.10
2023-03-06T21:56:34.202Z,40.40
2023-03-06T21:59:02.777Z,40.93
2023-03-06T22:01:31.353Z,41.13
2023-03-06T22:04:01.260Z,41.83
2023-03-06T22:06:31.196Z,41.17
2023-03-06T22:09:01.382Z,42.53
2023-03-06T22:11:31.569Z,41.47
2023-03-06T22:14:00.505Z,36.63
2023-03-06T22:16:29.030Z,40.17
2023-03-06T22:18:58.117Z,37.00
2023-03-06T22:21:27.953Z,36.97
2023-03-06T22:23:58.657Z,37.47
2023-03-06T22:26:27.886Z,38.43
2023-03-06T22:28:56.584Z,38.13
2023-03-06T22:31:27.096Z,38.83
2023-03-06T22:33:56.394Z,38.57
2023-03-06T22:36:27.404Z,36.20
2023-03-06T22:38:59.834Z,33.33
2023-03-06T22:41:29.083Z,36.53
2023-03-06T22:43:58.208Z,33.67
2023-03-06T22:46:27.511Z,35.77
2023-03-06T22:48:57.113Z,32.00
2023-03-06T22:51:26.229Z,34.43
2023-03-06T22:53:54.601Z,33.63
2023-03-06T22:56:24.432Z,36.00
2023-03-06T22:58:52.792Z,30.17
2023-03-06T23:01:23.287Z,29.97
2023-03-06T23:03:53.139Z,25.90
2023-03-06T23:06:23.799Z,28.83
2023-03-06T23:08:54.321Z,26.97
2023-03-06T23:11:25.806Z,24.20
2023-03-06T23:14:13.819Z,23.83
2023-03-06T23:17:01.191Z,24.13
2023-03-06T23:19:50.759Z,20.97
2023-03-06T23:22:37.835Z,20.33
2023-03-06T23:25:25.073Z,19.93
2023-03-06T23:27:55.795Z,21.70
2023-03-06T23:30:24.275Z,17.23
2023-03-06T23:32:52.672Z,18.87
2023-03-06T23:35:21.231Z,17.47
2023-03-06T23:37:49.657Z,20.93
2023-03-06T23:40:18.944Z,24.03
2023-03-06T23:42:47.601Z,22.87
2023-03-06T23:45:17.550Z,16.47
2023-03-06T23:47:46.236Z,16.53
2023-03-06T23:50:15.142Z,16.63
2023-03-06T23:52:43.749Z,17.27
2023-03-06T23:55:12.724Z,17.00
2023-03-06T23:57:41.226Z,18.57
